Time;durP1;ratioP1;P1;durP2;ratioP2;P2;SDS_P1;SDS_P2;PMS_P1;PMS_P2;Temp;Humidity;BMP_temperature;BMP_pressure;BME280_temperature;BME280_humidity;BME280_pressure;Samples;Min_cycle;Max_cycle;Signal;HPM_P1;HPM_P2
2021/07/20 00:00:22;;;;;;;11.48;6.38;;;;;;;;;;4945090;29;20501;-78
2021/07/20 00:02:50;;;;;;;11.23;6.50;;;;;;;;;;4941782;29;20052;-77
2021/07/20 00:05:23;;;;;;;12.27;6.68;;;;;;;;;;4942631;29;20427;-78
2021/07/20 00:07:53;;;;;;;10.68;5.85;;;;;;;;;;4943032;29;20051;-77
2021/07/20 00:10:24;;;;;;;9.13;6.40;;;;;;;;;;4943656;29;20044;-77
2021/07/20 00:12:51;;;;;;;10.50;6.38;;;;;;;;;;4942859;29;20110;-78
2021/07/20 00:15:20;;;;;;;11.73;7.22;;;;;;;;;;4943125;29;20055;-78
2021/07/20 00:17:48;;;;;;;12.70;7.53;;;;;;;;;;4940724;29;20043;-76
2021/07/20 00:20:17;;;;;;;9.82;7.03;;;;;;;;;;4937363;29;20075;-76
2021/07/20 00:22:45;;;;;;;11.60;7.00;;;;;;;;;;4936331;29;20048;-77
2021/07/20 00:25:13;;;;;;;12.45;7.60;;;;;;;;;;4936185;29;20079;-77
2021/07/20 00:27:40;;;;;;;11.10;7.65;;;;;;;;;;4936443;29;20097;-77
2021/07/20 00:30:08;;;;;;;14.65;8.40;;;;;;;;;;4936268;29;20091;-77
2021/07/20 00:32:37;;;;;;;12.32;7.93;;;;;;;;;;4936284;29;20047;-77
2021/07/20 00:35:06;;;;;;;13.63;8.15;;;;;;;;;;4935820;29;20079;-77
2021/07/20 00:37:33;;;;;;;12.90;7.88;;;;;;;;;;4936237;29;20055;-77
2021/07/20 00:39:59;;;;;;;12.30;7.95;;;;;;;;;;4936229;29;20048;-77
2021/07/20 00:42:26;;;;;;;13.70;8.05;;;;;;;;;;4936240;29;20101;-77
2021/07/20 00:44:53;;;;;;;16.10;8.55;;;;;;;;;;4935550;29;20103;-77
2021/07/20 00:47:20;;;;;;;11.77;8.02;;;;;;;;;;4935950;29;20075;-77
2021/07/20 00:49:48;;;;;;;12.80;7.18;;;;;;;;;;4935827;29;20047;-77
2021/07/20 00:52:15;;;;;;;14.07;8.52;;;;;;;;;;4935847;29;20521;-77
2021/07/20 00:54:42;;;;;;;13.23;8.18;;;;;;;;;;4936106;29;20485;-77
2021/07/20 00:57:09;;;;;;;12.55;7.95;;;;;;;;;;4936128;29;20134;-77
2021/07/20 00:59:37;;;;;;;11.27;7.93;;;;;;;;;;4935434;29;20138;-77
2021/07/20 01:02:04;;;;;;;11.60;7.70;;;;;;;;;;4935860;29;20571;-77
2021/07/20 01:04:32;;;;;;;11.55;7.70;;;;;;;;;;4935466;29;20048;-76
2021/07/20 01:07:01;;;;;;;11.63;7.38;;;;;;;;;;4935367;29;20051;-77
2021/07/20 01:09:28;;;;;;;11.75;7.40;;;;;;;;;;4935528;29;20087;-77
2021/07/20 01:11:55;;;;;;;12.45;8.75;;;;;;;;;;4935536;29;20043;-77
2021/07/20 01:14:23;;;;;;;14.80;8.68;;;;;;;;;;4935411;29;20047;-77
2021/07/20 01:16:53;;;;;;;13.52;7.63;;;;;;;;;;4935133;29;20087;-76
2021/07/20 01:19:32;;;;;;;14.18;7.72;;;;;;;;;;4935357;29;20087;-77
2021/07/20 01:22:01;;;;;;;11.80;7.45;;;;;;;;;;4935641;29;20370;-77
2021/07/20 01:24:31;;;;;;;13.65;8.85;;;;;;;;;;4935232;29;20532;-77
2021/07/20 01:26:58;;;;;;;14.35;8.60;;;;;;;;;;4935642;29;20139;-78
2021/07/20 01:29:25;;;;;;;11.45;7.55;;;;;;;;;;4936027;29;20135;-78
2021/07/20 01:31:52;;;;;;;12.40;7.65;;;;;;;;;;4935704;29;20454;-77
2021/07/20 01:34:21;;;;;;;11.80;7.43;;;;;;;;;;4936152;29;20075;-78
2021/07/20 01:36:50;;;;;;;12.05;8.27;;;;;;;;;;4936053;29;20055;-78
2021/07/20 01:39:18;;;;;;;11.90;7.10;;;;;;;;;;4936051;29;20082;-77
2021/07/20 01:41:47;;;;;;;13.70;7.93;;;;;;;;;;4935366;29;20083;-77
2021/07/20 01:44:15;;;;;;;12.07;8.07;;;;;;;;;;4935375;29;20083;-77
2021/07/20 01:46:42;;;;;;;10.98;7.43;;;;;;;;;;4935626;29;20080;-78
2021/07/20 01:49:13;;;;;;;13.70;7.93;;;;;;;;;;4935905;29;20099;-77
2021/07/20 01:51:41;;;;;;;13.05;7.40;;;;;;;;;;4935740;29;20055;-78
2021/07/20 01:54:12;;;;;;;11.75;7.60;;;;;;;;;;4935080;29;20052;-78
2021/07/20 01:56:39;;;;;;;11.88;7.47;;;;;;;;;;4935458;29;20413;-75
2021/07/20 01:59:09;;;;;;;11.60;7.32;;;;;;;;;;4935196;29;20107;-76
2021/07/20 02:01:43;;;;;;;11.88;7.85;;;;;;;;;;4935275;29;20051;-77
2021/07/20 02:04:34;;;;;;;11.63;8.20;;;;;;;;;;4934966;29;20047;-77
2021/07/20 02:09:49;;;;;;;11.45;6.82;;;;;;;;;;4935019;29;20054;-76
2021/07/20 02:12:18;;;;;;;12.95;7.90;;;;;;;;;;4939062;29;20054;-76
2021/07/20 02:14:49;;;;;;;14.68;8.57;;;;;;;;;;4938295;29;20052;-76
2021/07/20 02:17:18;;;;;;;14.73;8.13;;;;;;;;;;4938657;29;20489;-78
2021/07/20 02:19:50;;;;;;;13.60;8.70;;;;;;;;;;4938472;29;20405;-77
2021/07/20 02:22:20;;;;;;;12.90;8.40;;;;;;;;;;4938910;29;20441;-78
2021/07/20 02:24:50;;;;;;;12.25;8.43;;;;;;;;;;4938454;29;20079;-78
2021/07/20 02:27:22;;;;;;;14.65;8.50;;;;;;;;;;4938797;29;20428;-76
2021/07/20 02:29:54;;;;;;;12.85;8.20;;;;;;;;;;4938317;29;20090;-77
2021/07/20 02:32:22;;;;;;;12.68;8.13;;;;;;;;;;4938809;29;20126;-77
2021/07/20 02:34:51;;;;;;;14.25;9.52;;;;;;;;;;4938242;29;20079;-77
2021/07/20 02:37:22;;;;;;;13.93;8.70;;;;;;;;;;4938360;29;20119;-77
2021/07/20 02:39:49;;;;;;;12.70;8.68;;;;;;;;;;4938581;29;20052;-76
2021/07/20 02:42:19;;;;;;;14.43;9.43;;;;;;;;;;4938469;29;20048;-77
2021/07/20 02:44:46;;;;;;;14.93;9.43;;;;;;;;;;4938256;29;20079;-77
2021/07/20 02:47:15;;;;;;;12.95;8.27;;;;;;;;;;4938429;29;20103;-77
2021/07/20 02:49:42;;;;;;;13.85;8.98;;;;;;;;;;4937988;29;20524;-77
2021/07/20 02:52:10;;;;;;;14.68;8.98;;;;;;;;;;4938326;29;20166;-77
2021/07/20 02:54:37;;;;;;;14.35;9.52;;;;;;;;;;4937787;29;20048;-77
2021/07/20 02:57:06;;;;;;;17.35;9.65;;;;;;;;;;4938169;29;20138;-77
2021/07/20 02:59:34;;;;;;;12.77;7.80;;;;;;;;;;4937890;29;20086;-77
2021/07/20 03:02:03;;;;;;;15.27;8.95;;;;;;;;;;4937914;29;20044;-77
2021/07/20 03:04:32;;;;;;;15.35;9.18;;;;;;;;;;4938129;29;20083;-77
2021/07/20 03:07:03;;;;;;;15.60;9.32;;;;;;;;;;4937964;29;20142;-77
2021/07/20 03:09:30;;;;;;;;;;;;;;;;;;4938404;29;20048;-77
2021/07/20 03:12:01;;;;;;;14.80;8.80;;;;;;;;;;4938169;29;19923;-77
2021/07/20 03:14:30;;;;;;;14.85;9.75;;;;;;;;;;4937629;29;20068;-77
2021/07/20 03:16:58;;;;;;;15.55;9.90;;;;;;;;;;4937838;29;20131;-77
2021/07/20 03:19:26;;;;;;;15.30;9.85;;;;;;;;;;4937813;29;20079;-77
2021/07/20 03:21:57;;;;;;;16.27;10.15;;;;;;;;;;4937415;29;20052;-77
2021/07/20 03:24:24;;;;;;;13.68;9.27;;;;;;;;;;4937690;29;20079;-76
2021/07/20 03:26:54;;;;;;;14.70;9.05;;;;;;;;;;4938123;29;20461;-76
2021/07/20 03:29:23;;;;;;;15.73;10.40;;;;;;;;;;4938309;29;20051;-76
2021/07/20 03:31:50;;;;;;;13.82;9.93;;;;;;;;;;4937577;29;20413;-76
2021/07/20 03:34:18;;;;;;;16.08;9.75;;;;;;;;;;4937709;29;20386;-77
2021/07/20 03:36:46;;;;;;;18.85;9.50;;;;;;;;;;4937354;29;20083;-76
2021/07/20 03:39:14;;;;;;;17.85;10.27;;;;;;;;;;4937175;29;20100;-76
2021/07/20 03:41:43;;;;;;;15.98;10.40;;;;;;;;;;4937271;29;20506;-77
2021/07/20 03:44:11;;;;;;;17.27;10.25;;;;;;;;;;4938500;29;20111;-76
2021/07/20 03:46:40;;;;;;;16.52;9.32;;;;;;;;;;4939062;29;20497;-76
2021/07/20 03:49:07;;;;;;;16.50;10.48;;;;;;;;;;4939950;29;20106;-76
2021/07/20 03:51:35;;;;;;;15.57;9.65;;;;;;;;;;4938831;29;20466;-77
2021/07/20 03:54:03;;;;;;;18.48;10.45;;;;;;;;;;4938079;29;20103;-76
2021/07/20 03:56:34;;;;;;;18.83;10.90;;;;;;;;;;4937244;29;20095;-77
2021/07/20 03:59:03;;;;;;;15.45;9.40;;;;;;;;;;4937571;29;20237;-76
2021/07/20 04:01:35;;;;;;;14.40;9.10;;;;;;;;;;4937014;29;20048;-77
2021/07/20 04:04:02;;;;;;;16.30;9.32;;;;;;;;;;4936900;29;20486;-77
2021/07/20 04:06:29;;;;;;;16.80;9.20;;;;;;;;;;4936896;29;20091;-78
2021/07/20 04:08:57;;;;;;;17.13;9.43;;;;;;;;;;4938662;29;20094;-78
2021/07/20 04:11:24;;;;;;;15.40;10.23;;;;;;;;;;4939000;29;20458;-78
2021/07/20 04:13:53;;;;;;;15.95;9.13;;;;;;;;;;4938510;29;20517;-79
2021/07/20 04:16:24;;;;;;;17.13;9.43;;;;;;;;;;4936675;29;20084;-77
2021/07/20 04:18:52;;;;;;;16.55;9.48;;;;;;;;;;4936989;29;20090;-77
2021/07/20 04:21:20;;;;;;;17.55;10.15;;;;;;;;;;4936549;29;20465;-76
2021/07/20 04:23:50;;;;;;;18.38;10.07;;;;;;;;;;4936985;29;20053;-77
2021/07/20 04:26:18;;;;;;;17.50;9.70;;;;;;;;;;4936151;29;20063;-77
2021/07/20 04:28:45;;;;;;;15.35;9.75;;;;;;;;;;4936774;29;20075;-77
2021/07/20 04:31:16;;;;;;;15.70;9.52;;;;;;;;;;4936643;29;20083;-77
2021/07/20 04:33:46;;;;;;;17.50;9.88;;;;;;;;;;4936203;29;20043;-77
2021/07/20 04:36:14;;;;;;;17.70;10.10;;;;;;;;;;4936695;29;20048;-77
2021/07/20 04:38:41;;;;;;;16.67;9.13;;;;;;;;;;4936712;29;20141;-77
2021/07/20 04:41:08;;;;;;;15.23;9.65;;;;;;;;;;4936591;29;20071;-77
2021/07/20 04:43:37;;;;;;;14.32;9.25;;;;;;;;;;4936555;29;20079;-78
2021/07/20 04:46:06;;;;;;;15.02;9.15;;;;;;;;;;4936465;29;20087;-76
2021/07/20 04:48:35;;;;;;;15.13;9.45;;;;;;;;;;4936561;29;20048;-77
2021/07/20 04:51:02;;;;;;;15.25;8.65;;;;;;;;;;4936558;29;20572;-77
2021/07/20 04:53:29;;;;;;;16.45;10.02;;;;;;;;;;4935739;29;20083;-77
2021/07/20 04:55:56;;;;;;;14.40;9.70;;;;;;;;;;4935382;29;20593;-77
2021/07/20 04:58:22;;;;;;;16.83;9.85;;;;;;;;;;4936017;29;20083;-77
2021/07/20 05:00:52;;;;;;;17.80;9.40;;;;;;;;;;4936178;29;20043;-77
2021/07/20 05:03:19;;;;;;;13.57;8.93;;;;;;;;;;4936388;29;20047;-77
2021/07/20 05:05:48;;;;;;;16.13;9.85;;;;;;;;;;4935706;29;20154;-77
2021/07/20 05:08:17;;;;;;;15.38;10.57;;;;;;;;;;4935599;29;20509;-77
2021/07/20 05:10:47;;;;;;;15.48;9.80;;;;;;;;;;4935431;29;20083;-77
2021/07/20 05:13:16;;;;;;;15.23;9.50;;;;;;;;;;4936808;29;20043;-78
2021/07/20 05:15:46;;;;;;;20.77;11.63;;;;;;;;;;4936625;29;20079;-77
2021/07/20 05:18:14;;;;;;;14.52;10.27;;;;;;;;;;4936334;29;20085;-76
2021/07/20 05:20:42;;;;;;;15.30;10.05;;;;;;;;;;4935931;29;20122;-77
2021/07/20 05:23:13;;;;;;;15.20;9.60;;;;;;;;;;4936979;29;20521;-78
2021/07/20 05:25:41;;;;;;;13.60;8.68;;;;;;;;;;4937865;29;20110;-77
2021/07/20 05:28:10;;;;;;;16.15;9.90;;;;;;;;;;4942410;29;20106;-77
2021/07/20 05:30:38;;;;;;;10.75;7.95;;;;;;;;;;4937420;29;20450;-76
2021/07/20 05:33:04;;;;;;;14.40;9.50;;;;;;;;;;4937000;29;20083;-77
2021/07/20 05:35:31;;;;;;;13.95;8.73;;;;;;;;;;4937228;29;20047;-76
2021/07/20 05:37:59;;;;;;;21.20;15.90;;;;;;;;;;4937874;29;20051;-76
2021/07/20 05:40:28;;;;;;;15.45;10.32;;;;;;;;;;4936180;29;20047;-76
2021/07/20 05:42:57;;;;;;;13.82;9.82;;;;;;;;;;4935140;29;20521;-77
2021/07/20 05:45:25;;;;;;;14.23;9.38;;;;;;;;;;4934227;29;20497;-76
2021/07/20 05:47:52;;;;;;;22.00;9.43;;;;;;;;;;4935361;29;20070;-77
2021/07/20 05:50:20;;;;;;;12.93;8.80;;;;;;;;;;4935581;29;20044;-77
2021/07/20 05:52:49;;;;;;;13.48;9.13;;;;;;;;;;4935197;29;20082;-77
2021/07/20 05:55:18;;;;;;;14.88;9.73;;;;;;;;;;4934525;29;20486;-77
2021/07/20 05:57:48;;;;;;;13.85;9.52;;;;;;;;;;4934873;29;20055;-78
2021/07/20 06:00:23;;;;;;;17.75;9.85;;;;;;;;;;4935213;29;20052;-77
2021/07/20 06:02:50;;;;;;;14.77;9.35;;;;;;;;;;4935328;29;20052;-77
2021/07/20 06:05:19;;;;;;;17.35;10.60;;;;;;;;;;4934631;29;20556;-77
2021/07/20 06:07:46;;;;;;;17.58;10.43;;;;;;;;;;4935142;29;20044;-78
2021/07/20 06:10:18;;;;;;;15.90;9.30;;;;;;;;;;4935188;29;20075;-77
2021/07/20 06:12:49;;;;;;;13.75;9.60;;;;;;;;;;4935026;29;20043;-77
2021/07/20 06:15:17;;;;;;;16.48;10.38;;;;;;;;;;4935272;29;20114;-75
2021/07/20 06:17:45;;;;;;;16.08;10.63;;;;;;;;;;4935218;29;20052;-76
2021/07/20 06:20:14;;;;;;;15.88;9.55;;;;;;;;;;4934874;29;20555;-77
2021/07/20 06:22:48;;;;;;;15.23;10.32;;;;;;;;;;4935081;29;20083;-76
2021/07/20 06:25:16;;;;;;;15.25;9.65;;;;;;;;;;4934523;29;20044;-77
2021/07/20 06:27:44;;;;;;;15.05;8.98;;;;;;;;;;4934738;29;20131;-77
2021/07/20 06:30:15;;;;;;;14.02;9.73;;;;;;;;;;4937481;29;20083;-77
2021/07/20 06:32:41;;;;;;;;;;;;;;;;;;4935242;29;20055;-77
2021/07/20 06:35:12;;;;;;;14.18;8.52;;;;;;;;;;4935204;29;20459;-76
2021/07/20 06:37:44;;;;;;;13.10;8.15;;;;;;;;;;4938129;29;20111;-76
2021/07/20 06:40:15;;;;;;;16.95;8.60;;;;;;;;;;4938053;29;20055;-77
2021/07/20 06:42:42;;;;;;;14.20;9.25;;;;;;;;;;4937872;29;20107;-76
2021/07/20 06:45:12;;;;;;;17.15;10.02;;;;;;;;;;4936070;29;20074;-76
2021/07/20 06:47:41;;;;;;;13.93;9.07;;;;;;;;;;4936391;29;20581;-77
2021/07/20 06:50:09;;;;;;;15.30;9.65;;;;;;;;;;4938085;29;20350;-77
2021/07/20 06:52:36;;;;;;;13.85;8.55;;;;;;;;;;4936558;29;20083;-77
2021/07/20 06:55:04;;;;;;;18.05;9.60;;;;;;;;;;4938142;29;20115;-77
2021/07/20 06:57:32;;;;;;;21.15;9.75;;;;;;;;;;4937369;29;20083;-77
2021/07/20 07:00:00;;;;;;;14.27;9.95;;;;;;;;;;4938691;29;20090;-77
2021/07/20 07:02:28;;;;;;;15.27;9.50;;;;;;;;;;4938570;29;20098;-77
2021/07/20 07:05:02;;;;;;;14.60;9.20;;;;;;;;;;4938449;29;20517;-77
2021/07/20 07:07:30;;;;;;;14.68;8.90;;;;;;;;;;4935559;29;20055;-77
2021/07/20 07:09:59;;;;;;;15.63;9.40;;;;;;;;;;4936182;29;20047;-78
2021/07/20 07:12:26;;;;;;;14.63;9.52;;;;;;;;;;4936741;29;20052;-78
2021/07/20 07:14:54;;;;;;;13.65;8.60;;;;;;;;;;4936873;29;20040;-77
2021/07/20 07:17:21;;;;;;;13.65;8.57;;;;;;;;;;4936074;29;20084;-77
2021/07/20 07:19:50;;;;;;;13.10;8.48;;;;;;;;;;4936075;29;20075;-75
2021/07/20 07:22:22;;;;;;;14.68;9.25;;;;;;;;;;4937868;29;20090;-78
2021/07/20 07:24:51;;;;;;;16.95;9.48;;;;;;;;;;4935990;29;20051;-77
2021/07/20 07:27:19;;;;;;;15.77;9.70;;;;;;;;;;4936360;29;20513;-78
2021/07/20 07:29:46;;;;;;;12.82;9.15;;;;;;;;;;4936140;29;20050;-78
2021/07/20 07:32:13;;;;;;;13.13;8.88;;;;;;;;;;4935473;29;20051;-77
2021/07/20 07:34:40;;;;;;;12.82;8.90;;;;;;;;;;4935876;29;20079;-77
2021/07/20 07:37:09;;;;;;;13.25;8.70;;;;;;;;;;4935815;29;20083;-76
2021/07/20 07:39:37;;;;;;;15.52;9.13;;;;;;;;;;4935296;29;20075;-77
2021/07/20 07:42:06;;;;;;;14.18;8.90;;;;;;;;;;4935524;29;20083;-76
2021/07/20 07:44:34;;;;;;;16.45;10.77;;;;;;;;;;4934939;29;20083;-78
2021/07/20 07:47:01;;;;;;;14.07;9.30;;;;;;;;;;4935194;29;20052;-77
2021/07/20 07:49:28;;;;;;;13.27;8.68;;;;;;;;;;4934984;29;20458;-76
2021/07/20 07:51:56;;;;;;;14.70;8.82;;;;;;;;;;4935037;29;20513;-77
2021/07/20 07:54:23;;;;;;;15.70;9.55;;;;;;;;;;4934913;29;20398;-76
2021/07/20 07:56:53;;;;;;;13.02;8.50;;;;;;;;;;4934809;29;20143;-77
2021/07/20 07:59:23;;;;;;;10.95;7.72;;;;;;;;;;4935488;29;20043;-77
2021/07/20 08:01:52;;;;;;;14.98;8.32;;;;;;;;;;4935285;29;20051;-76
2021/07/20 08:04:21;;;;;;;15.15;9.20;;;;;;;;;;4934976;29;20130;-77
2021/07/20 08:06:48;;;;;;;13.65;8.18;;;;;;;;;;4934904;29;20062;-78
2021/07/20 08:09:18;;;;;;;12.13;8.30;;;;;;;;;;4934097;29;20058;-78
2021/07/20 08:11:47;;;;;;;14.32;7.97;;;;;;;;;;4935590;29;20052;-77
2021/07/20 08:14:15;;;;;;;10.80;7.80;;;;;;;;;;4935543;29;20145;-78
2021/07/20 08:16:45;;;;;;;14.02;8.85;;;;;;;;;;4935979;29;20075;-78
2021/07/20 08:19:14;;;;;;;13.97;9.03;;;;;;;;;;4935410;29;20094;-78
2021/07/20 08:21:42;;;;;;;14.73;9.18;;;;;;;;;;4935856;29;20048;-77
2021/07/20 08:24:09;;;;;;;13.10;8.15;;;;;;;;;;4935138;29;20044;-77
2021/07/20 08:26:44;;;;;;;13.52;8.85;;;;;;;;;;4934449;29;20086;-77
2021/07/20 08:29:12;;;;;;;12.00;8.25;;;;;;;;;;4935338;29;20075;-77
2021/07/20 08:31:45;;;;;;;12.57;8.15;;;;;;;;;;4935234;29;20044;-77
2021/07/20 08:34:14;;;;;;;13.13;8.88;;;;;;;;;;4935768;29;20079;-77
2021/07/20 08:36:43;;;;;;;11.30;8.27;;;;;;;;;;4937305;29;20133;-80
2021/07/20 08:39:12;;;;;;;14.23;7.90;;;;;;;;;;4939778;29;20079;-78
2021/07/20 08:41:51;;;;;;;14.02;8.32;;;;;;;;;;4939656;29;20044;-78
2021/07/20 08:44:29;;;;;;;13.60;8.32;;;;;;;;;;4934123;29;20079;-77
2021/07/20 08:47:06;;;;;;;12.25;8.15;;;;;;;;;;4933961;29;20098;-76
2021/07/20 08:49:52;;;;;;;14.57;8.32;;;;;;;;;;4934835;29;20366;-77
2021/07/20 08:52:28;;;;;;;13.93;8.23;;;;;;;;;;4935759;29;20052;-78
2021/07/20 08:54:59;;;;;;;13.57;8.63;;;;;;;;;;4936522;29;20048;-77
2021/07/20 08:57:33;;;;;;;17.27;9.23;;;;;;;;;;4934853;29;20122;-78
2021/07/20 09:00:06;;;;;;;12.48;8.02;;;;;;;;;;4935893;29;20051;-77
2021/07/20 09:02:40;;;;;;;12.63;8.18;;;;;;;;;;4937562;29;20054;-78
2021/07/20 09:05:16;;;;;;;13.32;8.25;;;;;;;;;;4934684;29;20087;-76
2021/07/20 09:07:56;;;;;;;14.20;8.32;;;;;;;;;;4936751;29;20071;-77
2021/07/20 09:10:26;;;;;;;12.52;9.05;;;;;;;;;;4937080;29;20408;-78
2021/07/20 09:12:55;;;;;;;15.07;9.32;;;;;;;;;;4935068;29;20056;-78
2021/07/20 09:15:25;;;;;;;18.77;9.15;;;;;;;;;;4935280;29;20154;-77
2021/07/20 09:18:09;;;;;;;12.02;8.45;;;;;;;;;;4933671;29;20757;-77
2021/07/20 09:20:38;;;;;;;13.57;8.75;;;;;;;;;;4933770;29;20520;-77
2021/07/20 09:23:10;;;;;;;12.57;8.45;;;;;;;;;;4933303;29;20056;-77
2021/07/20 09:25:42;;;;;;;16.13;8.40;;;;;;;;;;4933070;29;20083;-77
2021/07/20 09:28:15;;;;;;;15.48;8.98;;;;;;;;;;4933641;29;20082;-77
2021/07/20 09:30:46;;;;;;;14.57;9.98;;;;;;;;;;4934094;29;20047;-77
2021/07/20 09:33:21;;;;;;;13.40;9.25;;;;;;;;;;4934445;29;20083;-78
2021/07/20 09:36:00;;;;;;;14.13;9.10;;;;;;;;;;4934243;29;20051;-77
2021/07/20 09:38:58;;;;;;;14.27;8.82;;;;;;;;;;4933986;29;20126;-77
2021/07/20 09:41:34;;;;;;;13.68;8.48;;;;;;;;;;4933851;29;20069;-76
2021/07/20 09:44:10;;;;;;;12.95;8.43;;;;;;;;;;4933679;29;20056;-77
2021/07/20 09:46:45;;;;;;;13.70;8.85;;;;;;;;;;4934726;29;20135;-77
2021/07/20 09:49:19;;;;;;;12.77;8.00;;;;;;;;;;4933880;29;20693;-76
2021/07/20 09:52:03;;;;;;;13.70;8.65;;;;;;;;;;4937136;29;20048;-77
2021/07/20 09:54:41;;;;;;;12.32;7.60;;;;;;;;;;4934969;29;20489;-76
2021/07/20 09:57:19;;;;;;;15.85;8.50;;;;;;;;;;4933905;29;20043;-77
2021/07/20 09:59:58;;;;;;;14.13;9.40;;;;;;;;;;4934968;29;20051;-77
2021/07/20 10:02:36;;;;;;;14.40;9.80;;;;;;;;;;4934155;29;20079;-78
2021/07/20 10:05:11;;;;;;;13.32;8.73;;;;;;;;;;4935010;29;20090;-77
2021/07/20 10:07:42;;;;;;;15.20;9.45;;;;;;;;;;4933988;29;20055;-76
2021/07/20 10:10:15;;;;;;;13.73;8.38;;;;;;;;;;4932724;29;20131;-77
2021/07/20 10:13:09;;;;;;;16.55;9.60;;;;;;;;;;4932980;29;20154;-77
2021/07/20 10:15:51;;;;;;;12.80;9.20;;;;;;;;;;4936190;29;20094;-79
2021/07/20 10:18:26;;;;;;;14.63;9.63;;;;;;;;;;4935706;29;20557;-78
2021/07/20 10:20:59;;;;;;;15.32;10.13;;;;;;;;;;4934442;29;20126;-78
2021/07/20 10:23:32;;;;;;;15.15;10.35;;;;;;;;;;4936035;29;20090;-80
2021/07/20 10:26:06;;;;;;;70.93;24.40;;;;;;;;;;4936604;29;20051;-79
2021/07/20 10:28:41;;;;;;;31.95;13.68;;;;;;;;;;4935803;29;20119;-77
2021/07/20 10:31:11;;;;;;;30.35;13.63;;;;;;;;;;4934278;29;20048;-77
2021/07/20 10:33:42;;;;;;;38.40;17.02;;;;;;;;;;4938000;29;20122;-77
2021/07/20 10:36:17;;;;;;;28.52;12.27;;;;;;;;;;4936997;29;20059;-77
2021/07/20 10:38:46;;;;;;;19.27;10.90;;;;;;;;;;4936931;29;20088;-77
2021/07/20 10:41:19;;;;;;;21.65;11.43;;;;;;;;;;4937340;29;20521;-77
2021/07/20 10:43:56;;;;;;;21.08;10.95;;;;;;;;;;4937154;29;20532;-77
2021/07/20 10:46:26;;;;;;;21.05;11.30;;;;;;;;;;4937286;29;20482;-78
2021/07/20 10:49:04;;;;;;;17.77;10.48;;;;;;;;;;4937474;29;20048;-77
2021/07/20 10:51:41;;;;;;;18.95;11.35;;;;;;;;;;4936090;29;20086;-77
2021/07/20 10:54:20;;;;;;;17.77;11.18;;;;;;;;;;4936432;29;20051;-76
2021/07/20 10:56:54;;;;;;;20.75;11.45;;;;;;;;;;4935500;29;20047;-77
2021/07/20 10:59:33;;;;;;;16.77;11.38;;;;;;;;;;4937330;29;20070;-78
2021/07/20 11:02:08;;;;;;;21.83;10.90;;;;;;;;;;4936909;29;20154;-76
2021/07/20 11:04:46;;;;;;;17.88;11.00;;;;;;;;;;4937077;29;20083;-77
2021/07/20 11:07:23;;;;;;;16.75;11.02;;;;;;;;;;4936807;29;20054;-76
2021/07/20 11:09:52;;;;;;;15.65;10.80;;;;;;;;;;4936846;29;20047;-77
2021/07/20 11:12:22;;;;;;;20.83;13.32;;;;;;;;;;4937291;29;20159;-77
2021/07/20 11:14:51;;;;;;;17.98;11.48;;;;;;;;;;4936873;29;20079;-77
2021/07/20 11:17:20;;;;;;;20.70;12.15;;;;;;;;;;4935837;29;20134;-77
2021/07/20 11:19:51;;;;;;;15.00;10.23;;;;;;;;;;4935849;29;20146;-77
2021/07/20 11:22:19;;;;;;;15.93;10.57;;;;;;;;;;4936171;29;20058;-77
2021/07/20 11:24:47;;;;;;;15.55;9.75;;;;;;;;;;4935924;29;20097;-77
2021/07/20 11:27:17;;;;;;;18.45;10.90;;;;;;;;;;4936773;29;20055;-77
2021/07/20 11:29:44;;;;;;;19.48;11.13;;;;;;;;;;4936810;29;20044;-78
2021/07/20 11:32:15;;;;;;;16.63;11.13;;;;;;;;;;4935816;29;20103;-78
2021/07/20 11:34:45;;;;;;;15.43;10.82;;;;;;;;;;4936699;29;20060;-77
2021/07/20 11:37:13;;;;;;;15.25;10.95;;;;;;;;;;4935330;29;20086;-77
2021/07/20 11:39:46;;;;;;;16.45;11.55;;;;;;;;;;4935685;29;20079;-77
2021/07/20 11:42:21;;;;;;;17.88;11.50;;;;;;;;;;4934498;29;20813;-77
2021/07/20 11:44:52;;;;;;;17.80;11.95;;;;;;;;;;4934731;29;20087;-77
2021/07/20 11:47:24;;;;;;;18.17;12.48;;;;;;;;;;4935291;29;20444;-77
2021/07/20 11:50:00;;;;;;;17.20;11.88;;;;;;;;;;4936131;29;20082;-78
2021/07/20 11:52:29;;;;;;;18.67;11.50;;;;;;;;;;4936093;29;20155;-77
2021/07/20 11:55:07;;;;;;;19.75;11.27;;;;;;;;;;4935080;29;20119;-77
2021/07/20 11:58:11;;;;;;;16.85;11.50;;;;;;;;;;4935338;29;20094;-77
2021/07/20 12:01:13;;;;;;;16.75;10.98;;;;;;;;;;4934869;29;20071;-77
2021/07/20 12:03:49;;;;;;;15.05;10.93;;;;;;;;;;4935303;29;20114;-77
2021/07/20 12:06:28;;;;;;;15.57;11.60;;;;;;;;;;4937107;29;20086;-78
2021/07/20 12:09:08;;;;;;;16.88;11.73;;;;;;;;;;4934898;29;20047;-77
2021/07/20 12:11:39;;;;;;;;;;;;;;;;;;4935406;29;20048;-76
2021/07/20 12:14:08;;;;;;;18.63;12.20;;;;;;;;;;4935980;29;19981;-78
2021/07/20 12:16:40;;;;;;;22.25;13.63;;;;;;;;;;4936297;29;20556;-77
2021/07/20 12:19:07;;;;;;;21.98;14.10;;;;;;;;;;4936688;29;20062;-77
2021/07/20 12:21:34;;;;;;;19.63;11.88;;;;;;;;;;4936444;29;20082;-77
2021/07/20 12:24:06;;;;;;;18.13;12.63;;;;;;;;;;4935114;29;20666;-76
2021/07/20 12:26:34;;;;;;;17.98;11.82;;;;;;;;;;4934895;29;20106;-77
2021/07/20 12:29:03;;;;;;;19.25;13.00;;;;;;;;;;4935218;29;20056;-77
2021/07/20 12:31:30;;;;;;;15.35;11.43;;;;;;;;;;4935103;29;20485;-76
2021/07/20 12:33:57;;;;;;;16.40;11.38;;;;;;;;;;4934692;29;20083;-77
2021/07/20 12:36:25;;;;;;;17.30;12.23;;;;;;;;;;4935114;29;20083;-77
2021/07/20 12:39:07;;;;;;;17.15;10.63;;;;;;;;;;4935854;29;20087;-77
2021/07/20 12:41:35;;;;;;;17.70;12.38;;;;;;;;;;4934948;29;20106;-77
2021/07/20 12:44:04;;;;;;;16.67;11.75;;;;;;;;;;4934327;29;20051;-77
2021/07/20 12:46:35;;;;;;;16.95;12.63;;;;;;;;;;4934455;29;20123;-77
2021/07/20 12:49:03;;;;;;;17.60;12.50;;;;;;;;;;4936340;29;20502;-77
2021/07/20 12:51:30;;;;;;;17.67;12.68;;;;;;;;;;4936624;29;20090;-77
2021/07/20 12:53:56;;;;;;;17.58;12.27;;;;;;;;;;4935982;29;20054;-78
2021/07/20 12:56:26;;;;;;;16.45;12.52;;;;;;;;;;4939092;29;20052;-78
2021/07/20 12:58:54;;;;;;;15.90;11.45;;;;;;;;;;4938052;29;20502;-78
2021/07/20 13:01:23;;;;;;;16.83;11.60;;;;;;;;;;4940775;29;20082;-78
2021/07/20 13:03:50;;;;;;;21.40;12.55;;;;;;;;;;4939169;29;20388;-78
2021/07/20 13:06:24;;;;;;;17.83;12.45;;;;;;;;;;4941105;29;20426;-78
2021/07/20 13:08:53;;;;;;;18.23;12.60;;;;;;;;;;4937690;29;20083;-78
2021/07/20 13:11:21;;;;;;;18.10;12.50;;;;;;;;;;4938923;29;20087;-78
2021/07/20 13:13:49;;;;;;;18.40;12.52;;;;;;;;;;4945805;29;20053;-77
2021/07/20 13:16:18;;;;;;;16.13;12.13;;;;;;;;;;4937156;29;20051;-77
2021/07/20 13:18:49;;;;;;;19.13;12.85;;;;;;;;;;4936002;29;20429;-77
2021/07/20 13:21:19;;;;;;;19.20;13.05;;;;;;;;;;4935616;29;20079;-76
2021/07/20 13:23:47;;;;;;;18.20;13.38;;;;;;;;;;4935482;29;20528;-76
2021/07/20 13:26:22;;;;;;;18.33;12.88;;;;;;;;;;4935412;29;20083;-77
2021/07/20 13:28:53;;;;;;;20.70;14.02;;;;;;;;;;4935819;29;20139;-76
2021/07/20 13:31:25;;;;;;;16.92;13.80;;;;;;;;;;4935382;29;20087;-77
2021/07/20 13:33:54;;;;;;;19.67;13.20;;;;;;;;;;4935109;29;20485;-77
2021/07/20 13:36:21;;;;;;;20.45;14.77;;;;;;;;;;4935105;29;20048;-77
2021/07/20 13:38:49;;;;;;;20.40;13.60;;;;;;;;;;4935368;29;20091;-76
2021/07/20 13:41:16;;;;;;;22.17;13.55;;;;;;;;;;4935502;29;20083;-76
2021/07/20 13:43:43;;;;;;;16.70;12.98;;;;;;;;;;4935174;29;20055;-77
2021/07/20 13:46:11;;;;;;;16.35;12.75;;;;;;;;;;4934807;29;20531;-77
2021/07/20 13:48:44;;;;;;;19.27;13.98;;;;;;;;;;4935242;29;20548;-76
2021/07/20 13:51:16;;;;;;;18.55;13.57;;;;;;;;;;4935502;29;20073;-76
2021/07/20 13:53:47;;;;;;;16.60;12.90;;;;;;;;;;4935141;29;20090;-78
2021/07/20 13:56:20;;;;;;;16.83;11.95;;;;;;;;;;4934901;29;20090;-77
2021/07/20 13:58:48;;;;;;;17.15;12.55;;;;;;;;;;4935244;29;20050;-76
2021/07/20 14:01:18;;;;;;;19.38;13.07;;;;;;;;;;4934999;29;20079;-77
2021/07/20 14:03:45;;;;;;;17.98;13.27;;;;;;;;;;4935092;29;20078;-77
2021/07/20 14:06:14;;;;;;;18.55;14.32;;;;;;;;;;4933731;29;20524;-77
2021/07/20 14:08:42;;;;;;;15.85;12.00;;;;;;;;;;4935295;29;20098;-76
2021/07/20 14:11:12;;;;;;;17.98;13.70;;;;;;;;;;4935112;29;20051;-77
2021/07/20 14:13:40;;;;;;;19.63;13.27;;;;;;;;;;4934941;29;20075;-77
2021/07/20 14:16:09;;;;;;;17.90;13.15;;;;;;;;;;4934567;29;20090;-76
2021/07/20 14:18:39;;;;;;;18.03;13.47;;;;;;;;;;4934761;29;20122;-76
2021/07/20 14:21:09;;;;;;;20.30;13.98;;;;;;;;;;4935451;29;20052;-77
2021/07/20 14:23:39;;;;;;;19.05;14.57;;;;;;;;;;4934863;29;20107;-76
2021/07/20 14:26:12;;;;;;;16.88;13.15;;;;;;;;;;4935276;29;20122;-76
2021/07/20 14:28:39;;;;;;;17.13;13.13;;;;;;;;;;4934093;29;20146;-77
2021/07/20 14:31:06;;;;;;;18.40;13.00;;;;;;;;;;4933098;29;20103;-77
2021/07/20 14:33:34;;;;;;;21.15;12.75;;;;;;;;;;4932957;29;20083;-77
2021/07/20 14:36:02;;;;;;;19.98;13.50;;;;;;;;;;4933215;29;20052;-76
2021/07/20 14:38:37;;;;;;;17.08;13.18;;;;;;;;;;4933545;29;20083;-77
2021/07/20 14:41:08;;;;;;;17.98;13.10;;;;;;;;;;4933876;29;20418;-77
2021/07/20 14:43:36;;;;;;;17.08;13.15;;;;;;;;;;4934208;29;20087;-76
2021/07/20 14:46:10;;;;;;;17.88;13.65;;;;;;;;;;4935942;29;20111;-78